sensor_id;sensor_type;location;lat;lon;timestamp;temperature;humidity
8778;DHT22;4425;50.872;4.712;2023-06-10T00:01:37;23.10;99.90
8778;DHT22;4425;50.872;4.712;2023-06-10T00:04:05;23.20;99.90
8778;DHT22;4425;50.872;4.712;2023-06-10T00:06:32;23.10;99.90
8778;DHT22;4425;50.872;4.712;2023-06-10T00:09:02;23.10;99.90
8778;DHT22;4425;50.872;4.712;2023-06-10T00:11:31;23.20;99.90
8778;DHT22;4425;50.872;4.712;2023-06-10T00:13:58;23.20;99.90
8778;DHT22;4425;50.872;4.712;2023-06-10T00:16:25;23.10;99.90
8778;DHT22;4425;50.872;4.712;2023-06-10T00:18:52;23.10;99.90
8778;DHT22;4425;50.872;4.712;2023-06-10T00:21:22;23.10;99.90
8778;DHT22;4425;50.872;4.712;2023-06-10T00:23:50;23.10;99.90
8778;DHT22;4425;50.872;4.712;2023-06-10T00:26:17;23.00;99.90
8778;DHT22;4425;50.872;4.712;2023-06-10T00:28:43;23.00;99.90
8778;DHT22;4425;50.872;4.712;2023-06-10T00:31:11;23.00;99.90
8778;DHT22;4425;50.872;4.712;2023-06-10T00:33:38;23.00;99.90
8778;DHT22;4425;50.872;4.712;2023-06-10T00:36:05;22.90;99.90
8778;DHT22;4425;50.872;4.712;2023-06-10T00:38:33;22.90;99.90
8778;DHT22;4425;50.872;4.712;2023-06-10T00:41:01;22.90;99.90
8778;DHT22;4425;50.872;4.712;2023-06-10T00:43:27;22.80;99.90
8778;DHT22;4425;50.872;4.712;2023-06-10T00:45:55;22.90;99.90
8778;DHT22;4425;50.872;4.712;2023-06-10T00:48:22;22.80;99.90
8778;DHT22;4425;50.872;4.712;2023-06-10T00:50:49;22.80;99.90
8778;DHT22;4425;50.872;4.712;2023-06-10T00:53:16;22.80;99.90
8778;DHT22;4425;50.872;4.712;2023-06-10T00:55:45;22.70;99.90
8778;DHT22;4425;50.872;4.712;2023-06-10T00:58:12;22.60;99.90
8778;DHT22;4425;50.872;4.712;2023-06-10T01:00:39;22.70;99.90
8778;DHT22;4425;50.872;4.712;2023-06-10T01:03:06;22.60;99.90
8778;DHT22;4425;50.872;4.712;2023-06-10T01:05:34;22.60;99.90
8778;DHT22;4425;50.872;4.712;2023-06-10T01:08:09;22.50;99.90
8778;DHT22;4425;50.872;4.712;2023-06-10T01:10:41;22.50;99.90
8778;DHT22;4425;50.872;4.712;2023-06-10T01:13:10;22.50;99.90
8778;DHT22;4425;50.872;4.712;2023-06-10T01:15:39;22.50;99.90
8778;DHT22;4425;50.872;4.712;2023-06-10T01:18:07;22.50;99.90
8778;DHT22;4425;50.872;4.712;2023-06-10T01:20:36;22.40;99.90
8778;DHT22;4425;50.872;4.712;2023-06-10T01:23:07;22.30;99.90
8778;DHT22;4425;50.872;4.712;2023-06-10T01:25:37;22.40;99.90
8778;DHT22;4425;50.872;4.712;2023-06-10T01:28:13;22.30;99.90
8778;DHT22;4425;50.872;4.712;2023-06-10T01:30:47;22.30;99.90
8778;DHT22;4425;50.872;4.712;2023-06-10T01:33:18;22.30;99.90
8778;DHT22;4425;50.872;4.712;2023-06-10T01:35:48;22.20;99.90
8778;DHT22;4425;50.872;4.712;2023-06-10T01:38:19;22.20;99.90
8778;DHT22;4425;50.872;4.712;2023-06-10T01:40:48;22.10;99.90
8778;DHT22;4425;50.872;4.712;2023-06-10T01:43:15;22.10;99.90
8778;DHT22;4425;50.872;4.712;2023-06-10T01:45:42;22.10;99.90
8778;DHT22;4425;50.872;4.712;2023-06-10T01:48:09;22.10;99.90
8778;DHT22;4425;50.872;4.712;2023-06-10T01:50:36;22.00;99.90
8778;DHT22;4425;50.872;4.712;2023-06-10T01:53:03;22.00;99.90
8778;DHT22;4425;50.872;4.712;2023-06-10T01:55:32;22.00;99.90
8778;DHT22;4425;50.872;4.712;2023-06-10T01:57:59;22.00;99.90
8778;DHT22;4425;50.872;4.712;2023-06-10T02:00:25;22.00;99.90
8778;DHT22;4425;50.872;4.712;2023-06-10T02:02:52;21.90;99.90
8778;DHT22;4425;50.872;4.712;2023-06-10T02:05:23;21.90;99.90
8778;DHT22;4425;50.872;4.712;2023-06-10T02:07:56;21.80;99.90
8778;DHT22;4425;50.872;4.712;2023-06-10T02:10:39;21.70;99.90
8778;DHT22;4425;50.872;4.712;2023-06-10T02:13:09;21.60;99.90
8778;DHT22;4425;50.872;4.712;2023-06-10T02:15:36;21.50;99.90
8778;DHT22;4425;50.872;4.712;2023-06-10T02:18:03;21.50;99.90
8778;DHT22;4425;50.872;4.712;2023-06-10T02:20:31;21.40;99.90
8778;DHT22;4425;50.872;4.712;2023-06-10T02:22:59;21.40;99.90
8778;DHT22;4425;50.872;4.712;2023-06-10T02:25:26;21.30;99.90
8778;DHT22;4425;50.872;4.712;2023-06-10T02:27:54;21.30;99.90
8778;DHT22;4425;50.872;4.712;2023-06-10T02:30:21;21.40;99.90
8778;DHT22;4425;50.872;4.712;2023-06-10T02:32:48;21.40;99.90
8778;DHT22;4425;50.872;4.712;2023-06-10T02:35:18;21.40;99.90
8778;DHT22;4425;50.872;4.712;2023-06-10T02:37:45;21.40;99.90
8778;DHT22;4425;50.872;4.712;2023-06-10T02:40:29;21.40;99.90
8778;DHT22;4425;50.872;4.712;2023-06-10T02:42:57;21.40;99.90
8778;DHT22;4425;50.872;4.712;2023-06-10T02:45:25;21.30;99.90
8778;DHT22;4425;50.872;4.712;2023-06-10T02:47:52;21.30;99.90
8778;DHT22;4425;50.872;4.712;2023-06-10T02:50:19;21.20;99.90
8778;DHT22;4425;50.872;4.712;2023-06-10T02:52:46;21.30;99.90
8778;DHT22;4425;50.872;4.712;2023-06-10T02:55:13;21.20;99.90
8778;DHT22;4425;50.872;4.712;2023-06-10T02:57:40;21.20;99.90
8778;DHT22;4425;50.872;4.712;2023-06-10T03:00:10;21.20;99.90
8778;DHT22;4425;50.872;4.712;2023-06-10T03:02:39;21.10;99.90
8778;DHT22;4425;50.872;4.712;2023-06-10T03:05:07;21.10;99.90
8778;DHT22;4425;50.872;4.712;2023-06-10T03:07:36;21.00;99.90
8778;DHT22;4425;50.872;4.712;2023-06-10T03:10:04;20.90;99.90
8778;DHT22;4425;50.872;4.712;2023-06-10T03:12:31;20.90;99.90
8778;DHT22;4425;50.872;4.712;2023-06-10T03:14:58;20.80;99.90
8778;DHT22;4425;50.872;4.712;2023-06-10T03:17:26;20.80;99.90
8778;DHT22;4425;50.872;4.712;2023-06-10T03:19:53;20.80;99.90
8778;DHT22;4425;50.872;4.712;2023-06-10T03:22:20;20.70;99.90
8778;DHT22;4425;50.872;4.712;2023-06-10T03:24:47;20.70;99.90
8778;DHT22;4425;50.872;4.712;2023-06-10T03:27:16;20.70;99.90
8778;DHT22;4425;50.872;4.712;2023-06-10T03:29:43;20.60;99.90
8778;DHT22;4425;50.872;4.712;2023-06-10T03:32:10;20.60;99.90
8778;DHT22;4425;50.872;4.712;2023-06-10T03:34:38;20.50;99.90
8778;DHT22;4425;50.872;4.712;2023-06-10T03:37:05;20.50;99.90
8778;DHT22;4425;50.872;4.712;2023-06-10T03:39:32;20.40;99.90
8778;DHT22;4425;50.872;4.712;2023-06-10T03:41:59;20.40;99.90
8778;DHT22;4425;50.872;4.712;2023-06-10T03:44:26;20.40;99.90
8778;DHT22;4425;50.872;4.712;2023-06-10T03:46:54;20.30;99.90
8778;DHT22;4425;50.872;4.712;2023-06-10T03:49:21;20.30;99.90
8778;DHT22;4425;50.872;4.712;2023-06-10T03:51:52;20.40;99.90
8778;DHT22;4425;50.872;4.712;2023-06-10T03:54:19;20.40;99.90
8778;DHT22;4425;50.872;4.712;2023-06-10T03:56:46;20.40;99.90
8778;DHT22;4425;50.872;4.712;2023-06-10T03:59:13;20.40;99.90
8778;DHT22;4425;50.872;4.712;2023-06-10T04:01:40;20.40;99.90
8778;DHT22;4425;50.872;4.712;2023-06-10T04:04:09;20.30;99.90
8778;DHT22;4425;50.872;4.712;2023-06-10T04:06:36;20.40;99.90
8778;DHT22;4425;50.872;4.712;2023-06-10T04:09:05;20.40;99.90
8778;DHT22;4425;50.872;4.712;2023-06-10T04:11:32;20.40;99.90
8778;DHT22;4425;50.872;4.712;2023-06-10T04:13:59;20.40;99.90
8778;DHT22;4425;50.872;4.712;2023-06-10T04:16:26;20.40;99.90
8778;DHT22;4425;50.872;4.712;2023-06-10T04:18:53;20.40;99.90
8778;DHT22;4425;50.872;4.712;2023-06-10T04:21:20;20.40;99.90
8778;DHT22;4425;50.872;4.712;2023-06-10T04:23:48;20.40;99.90
8778;DHT22;4425;50.872;4.712;2023-06-10T04:26:16;20.50;99.90
8778;DHT22;4425;50.872;4.712;2023-06-10T04:28:43;20.50;99.90
8778;DHT22;4425;50.872;4.712;2023-06-10T04:31:10;20.50;99.90
8778;DHT22;4425;50.872;4.712;2023-06-10T04:33:37;20.50;99.90
8778;DHT22;4425;50.872;4.712;2023-06-10T04:36:05;20.50;99.90
8778;DHT22;4425;50.872;4.712;2023-06-10T04:38:32;20.50;99.90
8778;DHT22;4425;50.872;4.712;2023-06-10T04:40:59;20.60;99.90
8778;DHT22;4425;50.872;4.712;2023-06-10T04:43:27;20.60;99.90
8778;DHT22;4425;50.872;4.712;2023-06-10T04:45:56;20.70;99.90
8778;DHT22;4425;50.872;4.712;2023-06-10T04:48:23;20.70;99.90
8778;DHT22;4425;50.872;4.712;2023-06-10T04:50:50;20.70;99.90
8778;DHT22;4425;50.872;4.712;2023-06-10T04:53:17;20.70;99.90
8778;DHT22;4425;50.872;4.712;2023-06-10T04:55:44;20.70;99.90
8778;DHT22;4425;50.872;4.712;2023-06-10T04:58:11;20.70;99.90
8778;DHT22;4425;50.872;4.712;2023-06-10T05:00:40;20.70;99.90
8778;DHT22;4425;50.872;4.712;2023-06-10T05:03:07;20.80;99.90
8778;DHT22;4425;50.872;4.712;2023-06-10T05:05:34;20.80;99.90
8778;DHT22;4425;50.872;4.712;2023-06-10T05:08:01;20.90;99.90
8778;DHT22;4425;50.872;4.712;2023-06-10T05:10:27;20.90;99.90
8778;DHT22;4425;50.872;4.712;2023-06-10T05:12:57;21.00;99.90
8778;DHT22;4425;50.872;4.712;2023-06-10T05:15:24;21.10;99.90
8778;DHT22;4425;50.872;4.712;2023-06-10T05:17:52;21.20;99.90
8778;DHT22;4425;50.872;4.712;2023-06-10T05:20:19;21.20;99.90
8778;DHT22;4425;50.872;4.712;2023-06-10T05:22:45;21.30;99.90
8778;DHT22;4425;50.872;4.712;2023-06-10T05:25:13;21.20;99.90
8778;DHT22;4425;50.872;4.712;2023-06-10T05:27:40;21.30;99.90
8778;DHT22;4425;50.872;4.712;2023-06-10T05:30:09;21.30;99.90
8778;DHT22;4425;50.872;4.712;2023-06-10T05:32:36;21.30;99.90
8778;DHT22;4425;50.872;4.712;2023-06-10T05:35:05;21.40;99.90
8778;DHT22;4425;50.872;4.712;2023-06-10T05:37:33;21.50;99.90
8778;DHT22;4425;50.872;4.712;2023-06-10T05:40:00;21.60;99.90
8778;DHT22;4425;50.872;4.712;2023-06-10T05:42:27;21.70;99.90
8778;DHT22;4425;50.872;4.712;2023-06-10T05:44:54;21.70;99.90
8778;DHT22;4425;50.872;4.712;2023-06-10T05:47:23;21.80;99.90
8778;DHT22;4425;50.872;4.712;2023-06-10T05:49:50;21.90;99.90
8778;DHT22;4425;50.872;4.712;2023-06-10T05:52:18;22.00;99.90
8778;DHT22;4425;50.872;4.712;2023-06-10T05:54:45;22.20;99.90
8778;DHT22;4425;50.872;4.712;2023-06-10T05:57:12;22.70;99.90
8778;DHT22;4425;50.872;4.712;2023-06-10T05:59:39;23.80;99.90
8778;DHT22;4425;50.872;4.712;2023-06-10T06:02:06;24.90;99.90
8778;DHT22;4425;50.872;4.712;2023-06-10T06:04:33;26.20;99.90
8778;DHT22;4425;50.872;4.712;2023-06-10T06:07:00;26.70;99.90
8778;DHT22;4425;50.872;4.712;2023-06-10T06:09:28;26.50;99.90
8778;DHT22;4425;50.872;4.712;2023-06-10T06:11:55;26.40;99.90
8778;DHT22;4425;50.872;4.712;2023-06-10T06:14:22;26.50;99.90
8778;DHT22;4425;50.872;4.712;2023-06-10T06:16:49;27.10;99.90
8778;DHT22;4425;50.872;4.712;2023-06-10T06:19:16;28.10;99.90
8778;DHT22;4425;50.872;4.712;2023-06-10T06:21:43;29.20;99.90
8778;DHT22;4425;50.872;4.712;2023-06-10T06:24:10;30.10;98.80
8778;DHT22;4425;50.872;4.712;2023-06-10T06:26:38;30.90;97.30
8778;DHT22;4425;50.872;4.712;2023-06-10T06:29:05;31.70;96.40
8778;DHT22;4425;50.872;4.712;2023-06-10T06:31:32;32.20;95.20
8778;DHT22;4425;50.872;4.712;2023-06-10T06:33:59;32.30;94.40
8778;DHT22;4425;50.872;4.712;2023-06-10T06:36:25;32.80;94.10
8778;DHT22;4425;50.872;4.712;2023-06-10T06:38:52;33.40;92.70
8778;DHT22;4425;50.872;4.712;2023-06-10T06:41:19;33.50;92.00
8778;DHT22;4425;50.872;4.712;2023-06-10T06:43:48;33.30;92.00
8778;DHT22;4425;50.872;4.712;2023-06-10T06:46:15;33.20;92.30
8778;DHT22;4425;50.872;4.712;2023-06-10T06:48:42;33.40;91.40
8778;DHT22;4425;50.872;4.712;2023-06-10T06:51:09;33.40;92.00
8778;DHT22;4425;50.872;4.712;2023-06-10T06:53:36;33.30;90.90
8778;DHT22;4425;50.872;4.712;2023-06-10T06:56:09;33.80;90.70
8778;DHT22;4425;50.872;4.712;2023-06-10T06:58:36;34.10;90.40
8778;DHT22;4425;50.872;4.712;2023-06-10T07:01:04;33.70;90.70
8778;DHT22;4425;50.872;4.712;2023-06-10T07:03:31;34.00;90.30
8778;DHT22;4425;50.872;4.712;2023-06-10T07:05:58;34.60;90.00
8778;DHT22;4425;50.872;4.712;2023-06-10T07:08:26;34.90;88.60
8778;DHT22;4425;50.872;4.712;2023-06-10T07:10:53;34.80;89.20
8778;DHT22;4425;50.872;4.712;2023-06-10T07:13:20;35.40;87.70
8778;DHT22;4425;50.872;4.712;2023-06-10T07:15:47;35.80;87.00
8778;DHT22;4425;50.872;4.712;2023-06-10T07:18:16;35.50;86.40
8778;DHT22;4425;50.872;4.712;2023-06-10T07:20:44;35.50;86.40
8778;DHT22;4425;50.872;4.712;2023-06-10T07:23:11;36.00;85.30
8778;DHT22;4425;50.872;4.712;2023-06-10T07:25:38;36.20;84.90
8778;DHT22;4425;50.872;4.712;2023-06-10T07:28:05;36.20;83.90
8778;DHT22;4425;50.872;4.712;2023-06-10T07:30:31;36.00;83.70
8778;DHT22;4425;50.872;4.712;2023-06-10T07:32:58;36.20;83.50
8778;DHT22;4425;50.872;4.712;2023-06-10T07:35:27;36.00;83.70
8778;DHT22;4425;50.872;4.712;2023-06-10T07:37:54;36.20;83.00
8778;DHT22;4425;50.872;4.712;2023-06-10T07:40:21;36.90;82.30
8778;DHT22;4425;50.872;4.712;2023-06-10T07:42:48;37.40;80.90
8778;DHT22;4425;50.872;4.712;2023-06-10T07:45:15;36.90;80.30
8778;DHT22;4425;50.872;4.712;2023-06-10T07:47:42;37.00;80.20
8778;DHT22;4425;50.872;4.712;2023-06-10T07:50:10;37.30;80.10
8778;DHT22;4425;50.872;4.712;2023-06-10T07:52:38;38.00;78.90
8778;DHT22;4425;50.872;4.712;2023-06-10T07:55:06;36.70;79.20
8778;DHT22;4425;50.872;4.712;2023-06-10T07:57:33;37.50;78.70
8778;DHT22;4425;50.872;4.712;2023-06-10T08:00:02;37.40;77.80
8778;DHT22;4425;50.872;4.712;2023-06-10T08:02:30;37.40;77.60
8778;DHT22;4425;50.872;4.712;2023-06-10T08:04:56;37.60;76.80
8778;DHT22;4425;50.872;4.712;2023-06-10T08:07:23;37.50;75.60
8778;DHT22;4425;50.872;4.712;2023-06-10T08:09:52;38.00;75.50
8778;DHT22;4425;50.872;4.712;2023-06-10T08:12:19;38.00;74.80
8778;DHT22;4425;50.872;4.712;2023-06-10T08:14:47;38.70;73.50
8778;DHT22;4425;50.872;4.712;2023-06-10T08:17:14;38.40;73.50
8778;DHT22;4425;50.872;4.712;2023-06-10T08:19:41;37.80;74.00
8778;DHT22;4425;50.872;4.712;2023-06-10T08:22:07;38.00;74.50
8778;DHT22;4425;50.872;4.712;2023-06-10T08:24:35;37.70;73.50
8778;DHT22;4425;50.872;4.712;2023-06-10T08:27:04;38.20;72.80
8778;DHT22;4425;50.872;4.712;2023-06-10T08:29:31;38.40;71.50
8778;DHT22;4425;50.872;4.712;2023-06-10T08:31:58;38.90;71.00
8778;DHT22;4425;50.872;4.712;2023-06-10T08:34:25;38.70;70.00
8778;DHT22;4425;50.872;4.712;2023-06-10T08:36:52;38.40;70.80
8778;DHT22;4425;50.872;4.712;2023-06-10T08:39:21;38.20;70.80
8778;DHT22;4425;50.872;4.712;2023-06-10T08:42:00;37.50;70.10
8778;DHT22;4425;50.872;4.712;2023-06-10T08:44:29;37.80;69.90
8778;DHT22;4425;50.872;4.712;2023-06-10T08:46:59;38.00;70.40
8778;DHT22;4425;50.872;4.712;2023-06-10T08:49:30;38.40;69.70
8778;DHT22;4425;50.872;4.712;2023-06-10T08:51:59;38.70;69.30
8778;DHT22;4425;50.872;4.712;2023-06-10T08:54:30;38.10;67.20
8778;DHT22;4425;50.872;4.712;2023-06-10T08:56:59;37.50;67.80
8778;DHT22;4425;50.872;4.712;2023-06-10T08:59:28;37.70;68.00
8778;DHT22;4425;50.872;4.712;2023-06-10T09:01:55;38.00;67.90
8778;DHT22;4425;50.872;4.712;2023-06-10T09:04:24;38.10;66.80
8778;DHT22;4425;50.872;4.712;2023-06-10T09:06:52;38.40;66.80
8778;DHT22;4425;50.872;4.712;2023-06-10T09:09:19;37.60;66.90
8778;DHT22;4425;50.872;4.712;2023-06-10T09:11:46;37.70;67.90
8778;DHT22;4425;50.872;4.712;2023-06-10T09:14:13;37.20;68.10
8778;DHT22;4425;50.872;4.712;2023-06-10T09:16:43;36.80;69.30
8778;DHT22;4425;50.872;4.712;2023-06-10T09:19:12;36.80;68.70
8778;DHT22;4425;50.872;4.712;2023-06-10T09:21:39;36.10;68.80
8778;DHT22;4425;50.872;4.712;2023-06-10T09:24:06;36.00;68.80
8778;DHT22;4425;50.872;4.712;2023-06-10T09:26:33;35.50;69.10
8778;DHT22;4425;50.872;4.712;2023-06-10T09:29:03;35.00;70.60
8778;DHT22;4425;50.872;4.712;2023-06-10T09:31:30;34.10;72.50
8778;DHT22;4425;50.872;4.712;2023-06-10T09:34:07;33.50;74.00
8778;DHT22;4425;50.872;4.712;2023-06-10T09:36:35;32.70;75.80
8778;DHT22;4425;50.872;4.712;2023-06-10T09:39:03;31.50;79.80
8778;DHT22;4425;50.872;4.712;2023-06-10T09:41:33;31.20;80.90
8778;DHT22;4425;50.872;4.712;2023-06-10T09:44:01;30.90;82.10
8778;DHT22;4425;50.872;4.712;2023-06-10T09:46:31;31.00;83.00
8778;DHT22;4425;50.872;4.712;2023-06-10T09:48:59;31.00;80.20
8778;DHT22;4425;50.872;4.712;2023-06-10T09:51:27;31.00;81.00
8778;DHT22;4425;50.872;4.712;2023-06-10T09:53:54;30.90;81.40
8778;DHT22;4425;50.872;4.712;2023-06-10T09:56:21;30.80;81.50
8778;DHT22;4425;50.872;4.712;2023-06-10T09:58:58;31.00;83.60
8778;DHT22;4425;50.872;4.712;2023-06-10T10:01:25;30.90;81.90
8778;DHT22;4425;50.872;4.712;2023-06-10T10:03:52;31.00;80.70
8778;DHT22;4425;50.872;4.712;2023-06-10T10:06:20;30.50;82.40
8778;DHT22;4425;50.872;4.712;2023-06-10T10:08:49;30.50;83.00
8778;DHT22;4425;50.872;4.712;2023-06-10T10:11:18;30.60;82.10
8778;DHT22;4425;50.872;4.712;2023-06-10T10:13:46;30.80;81.50
8778;DHT22;4425;50.872;4.712;2023-06-10T10:16:16;30.80;79.70
8778;DHT22;4425;50.872;4.712;2023-06-10T10:18:53;30.90;80.40
8778;DHT22;4425;50.872;4.712;2023-06-10T10:21:23;31.00;77.10
8778;DHT22;4425;50.872;4.712;2023-06-10T10:24:14;30.80;79.20
8778;DHT22;4425;50.872;4.712;2023-06-10T10:26:43;30.80;80.80
8778;DHT22;4425;50.872;4.712;2023-06-10T10:29:19;30.60;79.90
8778;DHT22;4425;50.872;4.712;2023-06-10T10:31:50;30.50;77.50
8778;DHT22;4425;50.872;4.712;2023-06-10T10:34:22;30.50;76.30
8778;DHT22;4425;50.872;4.712;2023-06-10T10:36:51;30.60;75.80
8778;DHT22;4425;50.872;4.712;2023-06-10T10:39:20;30.70;75.10
8778;DHT22;4425;50.872;4.712;2023-06-10T10:41:48;30.60;74.80
8778;DHT22;4425;50.872;4.712;2023-06-10T10:44:16;30.70;75.20
8778;DHT22;4425;50.872;4.712;2023-06-10T10:46:44;30.80;77.20
8778;DHT22;4425;50.872;4.712;2023-06-10T10:49:13;31.00;77.10
8778;DHT22;4425;50.872;4.712;2023-06-10T10:51:54;31.10;77.00
8778;DHT22;4425;50.872;4.712;2023-06-10T10:54:30;31.20;75.40
8778;DHT22;4425;50.872;4.712;2023-06-10T10:57:16;31.00;75.00
8778;DHT22;4425;50.872;4.712;2023-06-10T10:59:51;30.80;76.10
8778;DHT22;4425;50.872;4.712;2023-06-10T11:02:33;31.00;76.30
8778;DHT22;4425;50.872;4.712;2023-06-10T11:05:02;30.70;74.40
8778;DHT22;4425;50.872;4.712;2023-06-10T11:07:30;30.90;75.80
8778;DHT22;4425;50.872;4.712;2023-06-10T11:10:00;31.10;75.20
8778;DHT22;4425;50.872;4.712;2023-06-10T11:12:41;30.90;74.70
8778;DHT22;4425;50.872;4.712;2023-06-10T11:15:08;30.80;76.20
8778;DHT22;4425;50.872;4.712;2023-06-10T11:17:35;30.90;77.00
8778;DHT22;4425;50.872;4.712;2023-06-10T11:20:02;30.90;74.10
8778;DHT22;4425;50.872;4.712;2023-06-10T11:22:31;31.10;74.70
8778;DHT22;4425;50.872;4.712;2023-06-10T11:24:59;31.30;74.00
8778;DHT22;4425;50.872;4.712;2023-06-10T11:27:26;31.30;74.70
8778;DHT22;4425;50.872;4.712;2023-06-10T11:30:21;31.50;75.60
8778;DHT22;4425;50.872;4.712;2023-06-10T11:32:52;31.50;75.00
8778;DHT22;4425;50.872;4.712;2023-06-10T11:35:19;31.40;74.40
8778;DHT22;4425;50.872;4.712;2023-06-10T11:37:47;31.50;72.10
8778;DHT22;4425;50.872;4.712;2023-06-10T11:40:17;31.60;69.20
8778;DHT22;4425;50.872;4.712;2023-06-10T11:42:44;31.60;69.50
8778;DHT22;4425;50.872;4.712;2023-06-10T11:45:14;31.60;70.60
8778;DHT22;4425;50.872;4.712;2023-06-10T11:47:55;31.70;70.90
8778;DHT22;4425;50.872;4.712;2023-06-10T11:50:28;31.70;70.40
8778;DHT22;4425;50.872;4.712;2023-06-10T11:52:56;31.70;71.70
8778;DHT22;4425;50.872;4.712;2023-06-10T11:55:25;31.60;72.00
8778;DHT22;4425;50.872;4.712;2023-06-10T11:57:52;31.50;73.40
8778;DHT22;4425;50.872;4.712;2023-06-10T12:00:23;31.60;72.00
8778;DHT22;4425;50.872;4.712;2023-06-10T12:02:56;31.40;70.00
8778;DHT22;4425;50.872;4.712;2023-06-10T12:05:23;31.40;70.20
8778;DHT22;4425;50.872;4.712;2023-06-10T12:08:08;31.50;69.90
8778;DHT22;4425;50.872;4.712;2023-06-10T12:10:40;31.40;70.20
8778;DHT22;4425;50.872;4.712;2023-06-10T12:13:08;31.60;68.80
8778;DHT22;4425;50.872;4.712;2023-06-10T12:15:35;31.80;70.00
8778;DHT22;4425;50.872;4.712;2023-06-10T12:18:03;31.90;69.20
8778;DHT22;4425;50.872;4.712;2023-06-10T12:20:31;32.10;68.60
8778;DHT22;4425;50.872;4.712;2023-06-10T12:23:00;32.00;68.10
8778;DHT22;4425;50.872;4.712;2023-06-10T12:25:28;31.70;66.60
8778;DHT22;4425;50.872;4.712;2023-06-10T12:28:00;31.80;66.90
8778;DHT22;4425;50.872;4.712;2023-06-10T12:30:28;31.80;67.40
8778;DHT22;4425;50.872;4.712;2023-06-10T12:32:56;31.80;67.50
8778;DHT22;4425;50.872;4.712;2023-06-10T12:35:24;31.60;67.70
8778;DHT22;4425;50.872;4.712;2023-06-10T12:37:56;31.70;68.40
8778;DHT22;4425;50.872;4.712;2023-06-10T12:40:26;31.80;67.80
8778;DHT22;4425;50.872;4.712;2023-06-10T12:42:54;31.80;67.20
8778;DHT22;4425;50.872;4.712;2023-06-10T12:45:28;31.60;67.70
8778;DHT22;4425;50.872;4.712;2023-06-10T12:48:04;31.60;68.20
8778;DHT22;4425;50.872;4.712;2023-06-10T12:50:33;31.80;67.70
8778;DHT22;4425;50.872;4.712;2023-06-10T12:52:59;31.60;68.10
8778;DHT22;4425;50.872;4.712;2023-06-10T12:55:27;31.60;68.90
8778;DHT22;4425;50.872;4.712;2023-06-10T12:57:54;31.70;69.30
8778;DHT22;4425;50.872;4.712;2023-06-10T13:00:22;31.80;68.10
8778;DHT22;4425;50.872;4.712;2023-06-10T13:02:52;31.90;67.00
8778;DHT22;4425;50.872;4.712;2023-06-10T13:05:20;32.10;66.80
8778;DHT22;4425;50.872;4.712;2023-06-10T13:07:47;31.80;66.30
8778;DHT22;4425;50.872;4.712;2023-06-10T13:10:14;31.90;67.50
8778;DHT22;4425;50.872;4.712;2023-06-10T13:12:42;31.90;67.30
8778;DHT22;4425;50.872;4.712;2023-06-10T13:15:12;31.90;67.10
8778;DHT22;4425;50.872;4.712;2023-06-10T13:17:41;32.00;67.20
8778;DHT22;4425;50.872;4.712;2023-06-10T13:20:10;32.10;68.50
8778;DHT22;4425;50.872;4.712;2023-06-10T13:22:37;32.30;67.40
8778;DHT22;4425;50.872;4.712;2023-06-10T13:25:05;32.30;66.90
8778;DHT22;4425;50.872;4.712;2023-06-10T13:27:33;32.40;67.80
8778;DHT22;4425;50.872;4.712;2023-06-10T13:30:00;31.80;67.70
8778;DHT22;4425;50.872;4.712;2023-06-10T13:32:27;31.80;67.40
8778;DHT22;4425;50.872;4.712;2023-06-10T13:34:58;31.90;68.20
8778;DHT22;4425;50.872;4.712;2023-06-10T13:37:26;31.90;67.70
8778;DHT22;4425;50.872;4.712;2023-06-10T13:39:53;32.20;67.80
8778;DHT22;4425;50.872;4.712;2023-06-10T13:42:20;32.10;67.50
8778;DHT22;4425;50.872;4.712;2023-06-10T13:44:47;32.20;67.10
8778;DHT22;4425;50.872;4.712;2023-06-10T13:47:15;32.10;67.90
8778;DHT22;4425;50.872;4.712;2023-06-10T13:49:42;32.00;67.50
8778;DHT22;4425;50.872;4.712;2023-06-10T13:52:09;31.80;67.50
8778;DHT22;4425;50.872;4.712;2023-06-10T13:54:37;31.60;67.80
8778;DHT22;4425;50.872;4.712;2023-06-10T13:57:05;31.50;67.40
8778;DHT22;4425;50.872;4.712;2023-06-10T13:59:32;31.30;67.80
8778;DHT22;4425;50.872;4.712;2023-06-10T14:01:59;31.40;68.20
8778;DHT22;4425;50.872;4.712;2023-06-10T14:04:32;31.50;67.40
8778;DHT22;4425;50.872;4.712;2023-06-10T14:07:00;31.60;67.90
8778;DHT22;4425;50.872;4.712;2023-06-10T14:09:27;31.70;67.50
8778;DHT22;4425;50.872;4.712;2023-06-10T14:11:55;31.60;67.50
8778;DHT22;4425;50.872;4.712;2023-06-10T14:14:22;31.80;67.20
8778;DHT22;4425;50.872;4.712;2023-06-10T14:16:49;32.00;67.50
8778;DHT22;4425;50.872;4.712;2023-06-10T14:19:16;32.00;66.60
8778;DHT22;4425;50.872;4.712;2023-06-10T14:21:43;32.20;66.80
8778;DHT22;4425;50.872;4.712;2023-06-10T14:24:13;32.30;66.10
8778;DHT22;4425;50.872;4.712;2023-06-10T14:26:40;32.20;65.70
8778;DHT22;4425;50.872;4.712;2023-06-10T14:29:09;32.20;65.30
8778;DHT22;4425;50.872;4.712;2023-06-10T14:31:39;32.20;65.50
8778;DHT22;4425;50.872;4.712;2023-06-10T14:34:06;32.20;65.20
8778;DHT22;4425;50.872;4.712;2023-06-10T14:36:34;32.30;66.30
8778;DHT22;4425;50.872;4.712;2023-06-10T14:39:02;32.10;65.90
8778;DHT22;4425;50.872;4.712;2023-06-10T14:41:29;32.10;65.20
8778;DHT22;4425;50.872;4.712;2023-06-10T14:43:56;32.00;65.70
8778;DHT22;4425;50.872;4.712;2023-06-10T14:46:25;31.80;65.70
8778;DHT22;4425;50.872;4.712;2023-06-10T14:48:52;31.90;65.70
8778;DHT22;4425;50.872;4.712;2023-06-10T14:51:19;32.00;66.20
8778;DHT22;4425;50.872;4.712;2023-06-10T14:53:46;32.00;66.60
8778;DHT22;4425;50.872;4.712;2023-06-10T14:56:13;32.10;66.30
8778;DHT22;4425;50.872;4.712;2023-06-10T14:58:40;32.20;66.40
8778;DHT22;4425;50.872;4.712;2023-06-10T15:01:07;32.10;66.20
8778;DHT22;4425;50.872;4.712;2023-06-10T15:03:35;32.20;66.20
8778;DHT22;4425;50.872;4.712;2023-06-10T15:06:02;32.00;66.90
8778;DHT22;4425;50.872;4.712;2023-06-10T15:08:29;32.00;67.10
8778;DHT22;4425;50.872;4.712;2023-06-10T15:10:57;32.00;67.00
8778;DHT22;4425;50.872;4.712;2023-06-10T15:13:24;32.00;67.40
8778;DHT22;4425;50.872;4.712;2023-06-10T15:15:51;32.10;66.60
8778;DHT22;4425;50.872;4.712;2023-06-10T15:18:18;32.10;66.40
8778;DHT22;4425;50.872;4.712;2023-06-10T15:20:47;32.20;66.70
8778;DHT22;4425;50.872;4.712;2023-06-10T15:23:14;32.10;66.80
8778;DHT22;4425;50.872;4.712;2023-06-10T15:25:41;32.00;67.00
8778;DHT22;4425;50.872;4.712;2023-06-10T15:28:08;32.10;67.40
8778;DHT22;4425;50.872;4.712;2023-06-10T15:30:35;32.20;67.40
8778;DHT22;4425;50.872;4.712;2023-06-10T15:33:04;32.20;67.10
8778;DHT22;4425;50.872;4.712;2023-06-10T15:35:32;32.10;66.30
8778;DHT22;4425;50.872;4.712;2023-06-10T15:38:00;31.80;66.50
8778;DHT22;4425;50.872;4.712;2023-06-10T15:40:27;31.90;67.00
8778;DHT22;4425;50.872;4.712;2023-06-10T15:42:54;31.90;66.50
8778;DHT22;4425;50.872;4.712;2023-06-10T15:45:29;31.90;66.50
8778;DHT22;4425;50.872;4.712;2023-06-10T15:47:57;32.00;67.20
8778;DHT22;4425;50.872;4.712;2023-06-10T15:50:24;32.10;67.20
8778;DHT22;4425;50.872;4.712;2023-06-10T15:52:53;32.10;66.60
8778;DHT22;4425;50.872;4.712;2023-06-10T15:55:23;32.20;66.70
8778;DHT22;4425;50.872;4.712;2023-06-10T15:57:54;32.30;66.00
8778;DHT22;4425;50.872;4.712;2023-06-10T16:00:22;32.10;66.10
8778;DHT22;4425;50.872;4.712;2023-06-10T16:02:50;32.00;66.40
8778;DHT22;4425;50.872;4.712;2023-06-10T16:05:17;32.10;66.90
8778;DHT22;4425;50.872;4.712;2023-06-10T16:07:44;32.10;66.50
8778;DHT22;4425;50.872;4.712;2023-06-10T16:10:11;32.10;66.60